createdAt,value
2019-04-06T00:01:57.104Z,28.20
2019-04-06T00:04:28.857Z,29.00
2019-04-06T00:06:58.208Z,30.50
2019-04-06T00:09:27.590Z,28.07
2019-04-06T00:11:57.037Z,26.97
2019-04-06T00:14:26.452Z,27.60
2019-04-06T00:17:01.912Z,27.57
2019-04-06T00:19:31.339Z,28.97
2019-04-06T00:22:00.709Z,26.97
2019-04-06T00:24:30.102Z,26.90
2019-04-06T00:26:59.496Z,24.77
2019-04-06T00:29:29.023Z,26.70
2019-04-06T00:32:03.316Z,26.83
2019-04-06T00:34:32.683Z,27.43
2019-04-06T00:37:02.065Z,28.40
2019-04-06T00:39:31.440Z,29.00
2019-04-06T00:42:00.862Z,27.97
2019-04-06T00:44:30.224Z,25.63
2019-04-06T00:46:59.609Z,28.27
2019-04-06T00:49:28.956Z,27.53
2019-04-06T00:51:58.408Z,30.10
2019-04-06T00:54:27.753Z,29.43
2019-04-06T00:56:57.143Z,26.90
2019-04-06T00:59:26.508Z,27.57
2019-04-06T01:01:55.853Z,33.27
2019-04-06T01:04:27.376Z,30.40
2019-04-06T01:06:56.915Z,29.37
2019-04-06T01:09:26.298Z,28.70
2019-04-06T01:11:55.639Z,36.47
2019-04-06T01:14:25.020Z,35.53
2019-04-06T01:16:54.444Z,32.17
2019-04-06T01:19:23.959Z,33.33
2019-04-06T01:21:53.263Z,35.73
2019-04-06T01:24:23.817Z,34.57
2019-04-06T01:26:53.146Z,34.73
2019-04-06T01:29:22.520Z,39.03
2019-04-06T01:31:51.955Z,35.27
2019-04-06T01:34:21.328Z,36.27
2019-04-06T01:36:50.684Z,35.07
2019-04-06T01:39:20.053Z,35.33
2019-04-06T01:41:49.428Z,34.73
2019-04-06T01:44:18.837Z,33.30
2019-04-06T01:46:48.202Z,34.47
2019-04-06T01:49:17.595Z,32.70
2019-04-06T01:51:46.959Z,34.60
2019-04-06T01:54:16.423Z,34.93
2019-04-06T01:56:45.817Z,34.03
2019-04-06T01:59:15.171Z,33.33
2019-04-06T02:01:57.432Z,35.33
2019-04-06T02:04:26.901Z,39.60
2019-04-06T02:06:56.276Z,31.33
2019-04-06T02:09:25.765Z,32.43
2019-04-06T02:11:55.106Z,34.33
2019-04-06T02:14:24.461Z,37.63
2019-04-06T02:16:53.890Z,31.47
2019-04-06T02:19:23.240Z,35.13
2019-04-06T02:21:52.560Z,31.17
2019-04-06T02:24:21.914Z,37.47
2019-04-06T02:26:51.247Z,34.60
2019-04-06T02:29:21.650Z,31.13
2019-04-06T02:32:02.616Z,32.43
2019-04-06T02:34:53.928Z,32.97
2019-04-06T02:37:57.381Z,35.37
2019-04-06T02:40:51.659Z,37.43
2019-04-06T02:43:26.250Z,35.53
2019-04-06T02:45:55.639Z,32.83
2019-04-06T02:48:25.905Z,33.63
2019-04-06T02:50:55.473Z,35.57
2019-04-06T02:53:24.832Z,37.30
2019-04-06T02:55:54.172Z,36.70
2019-04-06T02:58:24.881Z,35.17
2019-04-06T03:00:54.417Z,35.00
2019-04-06T03:03:24.054Z,38.33
2019-04-06T03:05:53.410Z,38.07
2019-04-06T03:08:22.758Z,39.57
2019-04-06T03:10:52.282Z,39.43
2019-04-06T03:13:21.733Z,40.00
2019-04-06T03:15:51.056Z,40.67
2019-04-06T03:18:20.439Z,42.87
2019-04-06T03:20:49.784Z,42.00
2019-04-06T03:23:19.111Z,46.90
2019-04-06T03:25:48.485Z,44.10
2019-04-06T03:28:17.805Z,40.80
2019-04-06T03:30:47.151Z,40.50
2019-04-06T03:33:16.525Z,48.00
2019-04-06T03:35:48.919Z,47.47
2019-04-06T03:38:17.048Z,55.13
2019-04-06T03:40:46.722Z,47.70
2019-04-06T03:43:16.202Z,46.83
2019-04-06T03:45:45.523Z,47.00
2019-04-06T03:48:14.938Z,53.47
2019-04-06T03:50:44.320Z,54.50
2019-04-06T03:53:13.745Z,55.37
2019-04-06T03:55:43.131Z,55.63
2019-04-06T03:58:12.450Z,52.33
2019-04-06T04:00:41.902Z,60.50
2019-04-06T04:03:11.085Z,57.47
2019-04-06T04:05:40.279Z,55.10
2019-04-06T04:08:09.538Z,62.73
2019-04-06T04:10:38.991Z,66.23
2019-04-06T04:13:08.334Z,66.77
2019-04-06T04:15:37.664Z,61.20
2019-04-06T04:18:06.963Z,60.23
2019-04-06T04:20:36.413Z,65.80
2019-04-06T04:23:05.755Z,63.17
2019-04-06T04:25:34.970Z,69.43
2019-04-06T04:28:04.246Z,67.97
2019-04-06T04:30:34.588Z,69.43
2019-04-06T04:33:04.255Z,67.00
2019-04-06T04:35:33.648Z,68.07
2019-04-06T04:38:03.068Z,70.83
2019-04-06T04:40:32.294Z,63.47
2019-04-06T04:43:01.551Z,73.67
2019-04-06T04:45:31.010Z,74.90
2019-04-06T04:48:00.246Z,67.83
2019-04-06T04:50:29.498Z,71.03
2019-04-06T04:52:58.706Z,65.97
2019-04-06T04:55:27.981Z,65.90
2019-04-06T04:57:57.209Z,66.97
2019-04-06T05:00:26.444Z,66.77
2019-04-06T05:02:55.832Z,69.00
2019-04-06T05:05:25.104Z,61.17
2019-04-06T05:07:54.355Z,67.73
2019-04-06T05:10:23.636Z,67.40
2019-04-06T05:12:52.833Z,63.57
2019-04-06T05:15:30.441Z,62.07
2019-04-06T05:17:59.661Z,66.97
2019-04-06T05:20:29.011Z,63.07
2019-04-06T05:22:58.381Z,66.63
2019-04-06T05:25:27.605Z,63.97
2019-04-06T05:27:57.780Z,62.80
2019-04-06T05:30:26.973Z,64.30
2019-04-06T05:32:56.235Z,66.50
2019-04-06T05:35:25.405Z,58.17
2019-04-06T05:37:54.650Z,62.70
2019-04-06T05:40:24.197Z,61.30
2019-04-06T05:42:53.434Z,61.33
2019-04-06T05:45:22.734Z,65.33
2019-04-06T05:47:51.930Z,66.23
2019-04-06T05:50:21.157Z,61.60
2019-04-06T05:52:50.602Z,58.10
2019-04-06T05:55:19.949Z,63.13
2019-04-06T05:57:49.143Z,60.77
2019-04-06T06:00:18.374Z,64.77
2019-04-06T06:02:47.709Z,63.83
2019-04-06T06:05:16.918Z,57.33
2019-04-06T06:07:46.160Z,58.57
2019-04-06T06:10:15.396Z,62.50
2019-04-06T06:12:44.605Z,59.83
2019-04-06T06:15:13.865Z,59.67
2019-04-06T06:17:43.139Z,63.10
2019-04-06T06:20:12.486Z,59.03
2019-04-06T06:22:41.918Z,60.73
2019-04-06T06:25:11.204Z,56.90
2019-04-06T06:27:40.420Z,60.53
2019-04-06T06:30:09.646Z,62.30
2019-04-06T06:32:38.848Z,63.40
2019-04-06T06:35:08.075Z,59.83
2019-04-06T06:37:37.293Z,58.83
2019-04-06T06:40:09.005Z,55.60
2019-04-06T06:42:37.458Z,57.13
2019-04-06T06:45:06.747Z,62.60
2019-04-06T06:47:35.965Z,57.77
2019-04-06T06:50:05.787Z,58.27
2019-04-06T06:52:35.000Z,56.13
2019-04-06T06:55:04.320Z,60.43
2019-04-06T06:57:33.556Z,60.27
2019-04-06T07:00:02.827Z,61.97
2019-04-06T07:02:32.048Z,59.80
2019-04-06T07:05:01.338Z,53.47
2019-04-06T07:07:30.544Z,54.43
2019-04-06T07:10:05.022Z,53.80
2019-04-06T07:12:30.642Z,57.43
2019-04-06T07:14:59.980Z,59.03
2019-04-06T07:17:29.258Z,60.70
2019-04-06T07:19:58.496Z,61.73
2019-04-06T07:22:27.879Z,57.97
2019-04-06T07:24:57.074Z,58.43
2019-04-06T07:27:26.308Z,59.27
2019-04-06T07:29:55.520Z,60.80
2019-04-06T07:32:24.847Z,63.93
2019-04-06T07:34:54.020Z,61.23
2019-04-06T07:37:23.262Z,66.73
2019-04-06T07:39:52.549Z,62.87
2019-04-06T07:42:21.756Z,64.33
2019-04-06T07:44:51.006Z,63.73
2019-04-06T07:47:20.589Z,66.90
2019-04-06T07:49:50.010Z,61.03
2019-04-06T07:52:19.269Z,63.40
2019-04-06T07:54:48.528Z,64.73
2019-04-06T07:57:17.818Z,59.70
2019-04-06T07:59:47.061Z,59.30
2019-04-06T08:02:16.264Z,59.10
2019-04-06T08:04:45.709Z,62.90
2019-04-06T08:07:14.919Z,62.27
2019-04-06T08:09:44.300Z,63.07
2019-04-06T08:12:13.507Z,62.20
2019-04-06T08:14:42.741Z,60.93
2019-04-06T08:17:12.033Z,65.87
2019-04-06T08:19:41.260Z,64.33
2019-04-06T08:22:10.490Z,68.03
2019-04-06T08:24:39.684Z,60.80
2019-04-06T08:27:08.940Z,66.67
2019-04-06T08:29:38.210Z,60.27
2019-04-06T08:32:07.510Z,60.63
2019-04-06T08:34:36.996Z,55.10
2019-04-06T08:37:06.213Z,57.47
2019-04-06T08:39:35.527Z,53.80
2019-04-06T08:42:04.762Z,62.03
2019-04-06T08:44:33.996Z,58.47
2019-04-06T08:47:03.221Z,52.07
2019-04-06T08:49:32.638Z,56.37
2019-04-06T08:52:01.927Z,57.30
2019-04-06T08:54:31.173Z,61.13
2019-04-06T08:57:00.393Z,57.47
2019-04-06T08:59:29.594Z,58.03
2019-04-06T09:01:58.797Z,54.47
2019-04-06T09:04:27.992Z,51.47
2019-04-06T09:06:57.587Z,58.00
2019-04-06T09:09:26.881Z,54.47
2019-04-06T09:11:57.006Z,55.13
2019-04-06T09:14:26.236Z,58.00
2019-04-06T09:16:55.478Z,54.30
2019-04-06T09:19:24.742Z,57.13
2019-04-06T09:21:54.299Z,54.67
2019-04-06T09:24:23.612Z,53.57
2019-04-06T09:26:52.817Z,57.07
2019-04-06T09:29:24.323Z,60.73
2019-04-06T09:31:52.987Z,54.27
2019-04-06T09:34:22.276Z,56.20
2019-04-06T09:36:51.630Z,59.10
2019-04-06T09:39:20.894Z,59.90
2019-04-06T09:41:50.425Z,60.83
2019-04-06T09:44:30.069Z,59.83
2019-04-06T09:47:01.973Z,67.30
2019-04-06T09:49:53.132Z,58.00
2019-04-06T09:52:47.381Z,63.87
2019-04-06T09:55:31.833Z,64.63
2019-04-06T09:58:23.310Z,59.37
2019-04-06T10:01:19.160Z,69.40
2019-04-06T10:04:07.881Z,66.57
2019-04-06T10:06:59.034Z,74.70
2019-04-06T10:09:56.214Z,69.33
2019-04-06T10:12:43.030Z,76.23
2019-04-06T10:15:43.859Z,77.30
2019-04-06T10:18:37.046Z,75.00
2019-04-06T10:21:37.717Z,75.13
2019-04-06T10:24:27.457Z,80.60
2019-04-06T10:27:16.352Z,80.07
2019-04-06T10:30:03.964Z,80.53
2019-04-06T10:32:50.979Z,83.80
2019-04-06T10:35:39.535Z,85.00
2019-04-06T10:38:26.514Z,77.67
2019-04-06T10:41:04.327Z,86.47
2019-04-06T10:43:40.187Z,86.30
2019-04-06T10:46:25.244Z,84.00
2019-04-06T10:49:16.597Z,78.30
2019-04-06T10:51:57.741Z,79.17
2019-04-06T10:54:54.876Z,84.10
2019-04-06T10:57:44.585Z,85.07
2019-04-06T11:00:24.401Z,77.23
2019-04-06T11:03:15.485Z,84.97
2019-04-06T11:06:03.766Z,78.00
2019-04-06T11:08:58.158Z,80.90
2019-04-06T11:11:49.381Z,87.67
2019-04-06T11:14:28.262Z,82.77
2019-04-06T11:17:16.540Z,83.70
2019-04-06T11:20:05.465Z,74.87
2019-04-06T11:22:56.532Z,74.63
2019-04-06T11:25:39.916Z,80.67
2019-04-06T11:28:24.276Z,72.40
2019-04-06T11:31:12.077Z,67.03
2019-04-06T11:34:06.353Z,72.10
2019-04-06T11:36:57.759Z,68.67
2019-04-06T11:39:38.765Z,67.57
2019-04-06T11:42:45.262Z,65.33
2019-04-06T11:45:30.232Z,65.33
2019-04-06T11:48:08.560Z,67.90
2019-04-06T11:50:47.432Z,62.07
2019-04-06T11:53:28.716Z,63.20
2019-04-06T11:56:02.072Z,61.23
2019-04-06T11:58:55.822Z,55.97
2019-04-06T12:01:34.641Z,56.03
2019-04-06T12:04:16.821Z,54.63
2019-04-06T12:06:54.298Z,60.00
2019-04-06T12:09:35.285Z,55.33
2019-04-06T12:12:12.965Z,53.20
2019-04-06T12:14:47.597Z,51.27
2019-04-06T12:17:37.698Z,50.93
2019-04-06T12:20:27.163Z,54.70
2019-04-06T12:23:08.116Z,54.93
2019-04-06T12:25:55.083Z,52.77
2019-04-06T12:28:42.160Z,48.73
2019-04-06T12:31:24.772Z,52.13
2019-04-06T12:34:19.168Z,50.83
2019-04-06T12:37:11.391Z,52.57
2019-04-06T12:39:53.510Z,47.10
2019-04-06T12:42:32.323Z,51.63
2019-04-06T12:45:22.082Z,49.40
2019-04-06T12:48:12.098Z,49.13
2019-04-06T12:51:15.464Z,48.63
2019-04-06T12:53:57.941Z,50.33
2019-04-06T12:56:43.214Z,50.63
2019-04-06T12:59:43.512Z,49.13
2019-04-06T13:02:17.983Z,48.77
2019-04-06T13:04:57.429Z,49.33
2019-04-06T13:07:54.919Z,47.20
2019-04-06T13:10:28.998Z,49.13
2019-04-06T13:13:23.133Z,48.97
2019-04-06T13:16:17.767Z,51.80
2019-04-06T13:19:02.095Z,50.43
2019-04-06T13:21:50.530Z,45.70
2019-04-06T13:24:37.305Z,46.97
2019-04-06T13:27:18.864Z,44.77
2019-04-06T13:30:05.822Z,51.20
2019-04-06T13:32:53.432Z,44.47
2019-04-06T13:35:31.409Z,46.17
2019-04-06T13:38:18.530Z,45.50
2019-04-06T13:41:00.573Z,47.77
2019-04-06T13:43:44.709Z,46.23
2019-04-06T13:46:48.117Z,46.67
2019-04-06T13:49:35.302Z,49.83
2019-04-06T13:52:26.381Z,45.43
2019-04-06T13:55:13.309Z,45.97
2019-04-06T13:58:20.283Z,43.67
2019-04-06T14:01:16.930Z,46.10
2019-04-06T14:04:09.091Z,44.53
2019-04-06T14:06:57.846Z,42.53
2019-04-06T14:09:49.347Z,43.80
2019-04-06T14:12:41.032Z,44.93
2019-04-06T14:15:19.250Z,42.73
2019-04-06T14:18:04.378Z,42.80
2019-04-06T14:21:01.733Z,44.83
2019-04-06T14:23:43.191Z,44.67
2019-04-06T14:26:22.449Z,41.57
2019-04-06T14:28:58.678Z,42.60
2019-04-06T14:31:47.072Z,44.47
2019-04-06T14:34:35.536Z,42.27
2019-04-06T14:37:18.894Z,46.17
2019-04-06T14:40:06.098Z,43.67
2019-04-06T14:42:53.140Z,46.93
2019-04-06T14:45:29.964Z,48.17
2019-04-06T14:48:14.968Z,50.80
2019-04-06T14:50:57.548Z,48.00
2019-04-06T14:53:41.171Z,48.87
2019-04-06T14:56:32.320Z,47.80
2019-04-06T14:59:12.285Z,47.07
2019-04-06T15:02:00.037Z,45.73
2019-04-06T15:04:47.133Z,46.33
2019-04-06T15:07:35.721Z,47.27
2019-04-06T15:10:20.811Z,45.40
2019-04-06T15:13:06.292Z,43.63
2019-04-06T15:15:53.405Z,46.87
2019-04-06T15:18:39.700Z,45.33
2019-04-06T15:21:17.875Z,42.23
2019-04-06T15:23:57.159Z,46.43
2019-04-06T15:26:38.963Z,42.87
2019-04-06T15:29:30.157Z,42.40
2019-04-06T15:32:12.676Z,42.63
2019-04-06T15:34:54.068Z,41.57
2019-04-06T15:37:30.483Z,41.70
2019-04-06T15:40:17.830Z,40.53
2019-04-06T15:43:06.353Z,43.10
2019-04-06T15:46:03.190Z,38.40
2019-04-06T15:48:57.793Z,43.03
2019-04-06T15:51:49.273Z,41.83
2019-04-06T15:54:49.934Z,43.57
2019-04-06T15:57:33.549Z,43.93
2019-04-06T16:00:20.503Z,40.73
2019-04-06T16:03:12.907Z,44.03
2019-04-06T16:05:58.895Z,43.20
2019-04-06T16:08:40.850Z,39.33
2019-04-06T16:11:27.837Z,41.93
2019-04-06T16:14:10.449Z,39.30
2019-04-06T16:16:43.458Z,43.33
2019-04-06T16:19:20.449Z,42.63
2019-04-06T16:21:58.588Z,41.63
2019-04-06T16:24:38.819Z,41.60
2019-04-06T16:27:36.532Z,39.27
2019-04-06T16:30:31.227Z,44.33
2019-04-06T16:33:14.602Z,42.97
2019-04-06T16:36:02.898Z,43.28
2019-04-06T16:38:51.466Z,40.00
2019-04-06T16:41:37.912Z,41.77
2019-04-06T16:44:30.012Z,41.13
2019-04-06T16:47:24.342Z,40.47
2019-04-06T16:50:03.747Z,42.63
2019-04-06T16:52:56.327Z,45.30
2019-04-06T16:55:43.300Z,41.53
2019-04-06T16:58:31.686Z,43.57
2019-04-06T17:01:19.496Z,46.17
2019-04-06T17:03:58.218Z,43.13
2019-04-06T17:06:45.461Z,42.97
2019-04-06T17:09:39.876Z,50.10
2019-04-06T17:12:19.860Z,40.50
2019-04-06T17:15:11.097Z,52.17
2019-04-06T17:18:02.941Z,47.73
2019-04-06T17:20:51.993Z,51.90
2019-04-06T17:23:43.306Z,51.50
2019-04-06T17:26:30.742Z,51.53
2019-04-06T17:29:16.003Z,53.23
2019-04-06T17:31:56.860Z,57.03
2019-04-06T17:34:34.028Z,55.63
2019-04-06T17:37:11.328Z,49.70
2019-04-06T17:39:48.817Z,53.17
2019-04-06T17:42:43.510Z,54.40
2019-04-06T17:45:34.578Z,55.17
2019-04-06T17:48:26.901Z,54.80
2019-04-06T17:51:24.485Z,60.27
2019-04-06T17:54:12.890Z,59.10
2019-04-06T17:57:01.517Z,56.13
2019-04-06T17:59:48.493Z,66.33
2019-04-06T18:02:48.773Z,63.90
2019-04-06T18:05:33.688Z,65.13
2019-04-06T18:08:27.852Z,69.37
2019-04-06T18:11:24.958Z,62.40
2019-04-06T18:13:54.353Z,68.90
2019-04-06T18:16:26.468Z,67.83
2019-04-06T18:18:55.678Z,71.20
2019-04-06T18:21:25.005Z,76.33
2019-04-06T18:23:54.307Z,75.17
2019-04-06T18:26:23.601Z,77.77
2019-04-06T18:28:52.853Z,75.37
2019-04-06T18:31:47.129Z,77.30
2019-04-06T18:34:17.290Z,84.33
2019-04-06T18:37:09.293Z,81.83
2019-04-06T18:39:38.528Z,77.90
2019-04-06T18:42:07.758Z,79.40
2019-04-06T18:44:37.508Z,83.40
2019-04-06T18:47:06.844Z,80.00
2019-04-06T18:49:36.060Z,86.70
2019-04-06T18:52:05.287Z,88.53
2019-04-06T18:54:34.698Z,90.93
2019-04-06T18:57:03.915Z,84.23
2019-04-06T18:59:33.179Z,80.67
2019-04-06T19:02:03.141Z,90.03
2019-04-06T19:04:32.925Z,79.77
2019-04-06T19:07:02.726Z,88.17
2019-04-06T19:09:32.040Z,85.50
2019-04-06T19:12:01.279Z,80.83
2019-04-06T19:14:30.599Z,89.00
2019-04-06T19:17:00.841Z,89.87
2019-04-06T19:19:30.756Z,88.37
2019-04-06T19:22:00.109Z,84.10
2019-04-06T19:24:29.683Z,90.47
2019-04-06T19:26:59.008Z,91.70
2019-04-06T19:29:28.314Z,85.80
2019-04-06T19:31:58.364Z,93.90
2019-04-06T19:34:29.762Z,93.70
2019-04-06T19:36:59.322Z,97.30
2019-04-06T19:39:29.030Z,90.73
2019-04-06T19:41:58.377Z,90.20
2019-04-06T19:44:27.624Z,87.27
2019-04-06T19:46:57.158Z,97.17
2019-04-06T19:49:26.381Z,99.63
2019-04-06T19:51:55.592Z,100.57
2019-04-06T19:54:24.837Z,92.80
2019-04-06T19:56:54.162Z,109.00
2019-04-06T19:59:23.440Z,101.10
2019-04-06T20:01:52.665Z,98.93
2019-04-06T20:04:21.937Z,101.13
2019-04-06T20:06:51.318Z,94.30
2019-04-06T20:09:29.677Z,97.90
2019-04-06T20:12:06.909Z,104.03
2019-04-06T20:14:30.049Z,97.63
2019-04-06T20:16:59.506Z,104.37
2019-04-06T20:19:28.733Z,103.63
2019-04-06T20:21:57.965Z,101.83
2019-04-06T20:24:27.377Z,102.77
2019-04-06T20:26:56.622Z,96.20
2019-04-06T20:29:25.829Z,100.30
2019-04-06T20:31:55.217Z,102.60
2019-04-06T20:34:24.544Z,103.07
2019-04-06T20:36:53.940Z,102.73
2019-04-06T20:39:23.420Z,99.20
2019-04-06T20:41:52.986Z,98.73
2019-04-06T20:44:22.308Z,102.13
2019-04-06T20:46:51.547Z,99.37
2019-04-06T20:49:20.818Z,92.70
2019-04-06T20:51:49.996Z,95.27
2019-04-06T20:54:19.738Z,97.77
2019-04-06T20:56:56.369Z,101.57
2019-04-06T20:59:19.972Z,97.57
2019-04-06T21:01:49.423Z,93.97
2019-04-06T21:04:18.657Z,94.20
2019-04-06T21:06:48.236Z,96.80
2019-04-06T21:09:17.525Z,91.77
2019-04-06T21:11:46.926Z,93.77
2019-04-06T21:14:16.367Z,95.13
2019-04-06T21:16:45.713Z,103.33
2019-04-06T21:19:14.963Z,100.83
2019-04-06T21:21:44.298Z,95.03
2019-04-06T21:24:13.572Z,96.93
2019-04-06T21:26:43.335Z,94.23
2019-04-06T21:29:12.585Z,98.17
2019-04-06T21:31:41.960Z,99.27
2019-04-06T21:34:14.486Z,104.43
2019-04-06T21:36:42.642Z,103.27
2019-04-06T21:39:12.107Z,96.03
2019-04-06T21:41:41.695Z,104.23
2019-04-06T21:44:11.290Z,102.17
2019-04-06T21:46:40.516Z,101.17
2019-04-06T21:49:11.306Z,106.87
2019-04-06T21:51:40.621Z,105.17
2019-04-06T21:54:09.863Z,104.27
2019-04-06T21:56:39.209Z,95.97
2019-04-06T21:59:11.121Z,103.27
2019-04-06T22:01:41.244Z,101.13
2019-04-06T22:04:22.629Z,106.27
2019-04-06T22:06:41.503Z,100.37
2019-04-06T22:09:12.711Z,99.40
2019-04-06T22:11:42.444Z,99.10
2019-04-06T22:14:11.853Z,102.57
2019-04-06T22:16:41.732Z,101.50
2019-04-06T22:19:11.268Z,99.23
2019-04-06T22:21:40.613Z,99.10
2019-04-06T22:24:10.554Z,100.50
2019-04-06T22:26:40.555Z,95.50
2019-04-06T22:29:09.865Z,105.50
2019-04-06T22:31:39.085Z,103.53
2019-04-06T22:34:08.308Z,103.43
2019-04-06T22:36:37.524Z,102.20
2019-04-06T22:39:08.991Z,102.83
2019-04-06T22:41:38.926Z,99.23
2019-04-06T22:44:08.562Z,106.57
2019-04-06T22:46:38.091Z,105.00
2019-04-06T22:49:07.861Z,111.07
2019-04-06T22:51:37.922Z,107.50
2019-04-06T22:54:07.995Z,101.93
2019-04-06T22:56:37.434Z,104.70
2019-04-06T22:59:06.718Z,108.37
2019-04-06T23:01:37.596Z,99.23
2019-04-06T23:04:48.527Z,102.47
2019-04-06T23:07:17.763Z,108.07
2019-04-06T23:09:47.048Z,108.17
2019-04-06T23:12:16.775Z,108.07
2019-04-06T23:14:46.077Z,106.67
2019-04-06T23:17:15.686Z,106.67
2019-04-06T23:19:45.397Z,108.23
2019-04-06T23:22:14.798Z,107.80
2019-04-06T23:24:44.088Z,107.80
2019-04-06T23:27:13.693Z,102.47
2019-04-06T23:29:44.598Z,105.67
2019-04-06T23:32:15.089Z,110.97
2019-04-06T23:34:58.354Z,118.97
2019-04-06T23:37:19.439Z,105.70
2019-04-06T23:39:49.227Z,110.03
2019-04-06T23:42:18.675Z,101.57
2019-04-06T23:44:48.031Z,110.73
2019-04-06T23:47:17.314Z,111.17
2019-04-06T23:49:46.875Z,111.17
2019-04-06T23:52:17.629Z,109.47
2019-04-06T23:54:47.399Z,123.70
2019-04-06T23:57:20.919Z,109.87
2019-04-06T23:59:51.121Z,120.13
